Time;durP1;ratioP1;P1;durP2;ratioP2;P2;SDS_P1;SDS_P2;PMS_P1;PMS_P2;Temp;Humidity;BMP_temperature;BMP_pressure;BME280_temperature;BME280_humidity;BME280_pressure;Samples;Min_cycle;Max_cycle;Signal;HPM_P1;HPM_P2
2022/01/06 00:01:46;;;;;;;2.10;1.30;;;;;;;;;;5015134;28;20061;-65
2022/01/06 00:04:12;;;;;;;1.60;1.10;;;;;;;;;;5014248;28;20022;-65
2022/01/06 00:06:41;;;;;;;1.83;1.00;;;;;;;;;;5009902;28;20023;-65
2022/01/06 00:09:08;;;;;;;2.47;0.80;;;;;;;;;;4997827;28;20081;-65
2022/01/06 00:11:35;;;;;;;3.37;1.50;;;;;;;;;;5015072;28;20030;-65
2022/01/06 00:24:17;;;;;;;3.40;1.80;;;;;;;;;;5014390;28;20040;-64
2022/01/06 00:26:43;;;;;;;4.93;2.87;;;;;;;;;;5013344;28;20116;-65
2022/01/06 00:29:09;;;;;;;5.33;2.60;;;;;;;;;;5014479;28;20026;-64
2022/01/06 00:31:36;;;;;;;6.30;3.77;;;;;;;;;;5015853;28;20030;-64
2022/01/06 00:34:03;;;;;;;5.07;3.10;;;;;;;;;;5014272;28;20475;-64
2022/01/06 00:36:30;;;;;;;6.27;3.97;;;;;;;;;;4995862;28;20026;-64
2022/01/06 00:38:56;;;;;;;9.00;4.90;;;;;;;;;;5013215;28;20117;-64
2022/01/06 00:41:22;;;;;;;9.17;5.70;;;;;;;;;;5004610;28;20467;-64
2022/01/06 00:43:48;;;;;;;9.37;6.23;;;;;;;;;;5011918;28;20045;-64
2022/01/06 00:46:14;;;;;;;10.63;5.37;;;;;;;;;;5012374;28;20025;-64
2022/01/06 00:48:40;;;;;;;9.33;6.30;;;;;;;;;;5013620;28;20041;-65
2022/01/06 00:51:08;;;;;;;8.90;5.87;;;;;;;;;;5015220;28;20873;-65
2022/01/06 00:53:34;;;;;;;10.93;8.30;;;;;;;;;;5013840;28;20037;-65
2022/01/06 00:56:00;;;;;;;13.63;9.07;;;;;;;;;;5013274;28;20476;-65
2022/01/06 00:58:26;;;;;;;12.33;8.67;;;;;;;;;;5013711;28;20502;-65
2022/01/06 01:00:52;;;;;;;15.07;10.33;;;;;;;;;;5000579;28;20034;-65
2022/01/06 01:03:20;;;;;;;15.47;10.80;;;;;;;;;;5018419;28;20035;-65
2022/01/06 01:05:47;;;;;;;14.77;10.70;;;;;;;;;;4994170;28;20038;-65
2022/01/06 01:08:13;;;;;;;17.30;12.13;;;;;;;;;;4993532;28;20039;-65
2022/01/06 01:10:39;;;;;;;16.10;10.83;;;;;;;;;;5001129;28;20169;-65
2022/01/06 01:13:12;;;;;;;18.70;11.70;;;;;;;;;;4957473;28;1636290;-65
2022/01/06 01:16:22;;;;;;;14.40;9.67;;;;;;;;;;5014755;28;20033;-64
2022/01/06 01:18:30;;;;;;;15.50;10.63;;;;;;;;;;5005546;28;20034;-64
2022/01/06 01:20:56;;;;;;;16.63;9.50;;;;;;;;;;5019323;28;20463;-65
2022/01/06 01:23:23;;;;;;;13.40;9.57;;;;;;;;;;5013740;28;20037;-65
2022/01/06 01:25:49;;;;;;;13.73;9.90;;;;;;;;;;4996970;28;20116;-65
2022/01/06 01:28:15;;;;;;;12.83;9.27;;;;;;;;;;5013846;28;20030;-65
2022/01/06 01:30:53;;;;;;;11.77;9.07;;;;;;;;;;5014003;28;20030;-65
2022/01/06 01:33:19;;;;;;;12.40;8.67;;;;;;;;;;5012909;28;20049;-65
2022/01/06 01:35:45;;;;;;;12.10;8.50;;;;;;;;;;5013491;28;20057;-65
2022/01/06 01:38:11;;;;;;;12.47;7.83;;;;;;;;;;5008472;28;20435;-64
2022/01/06 01:40:37;;;;;;;13.93;8.43;;;;;;;;;;5013755;28;20025;-65
2022/01/06 01:43:04;;;;;;;14.43;7.30;;;;;;;;;;5012053;28;20034;-64
2022/01/06 01:45:32;;;;;;;11.43;6.30;;;;;;;;;;5013978;28;20025;-65
2022/01/06 01:48:03;;;;;;;9.63;6.17;;;;;;;;;;5013063;28;20022;-65
2022/01/06 01:50:29;;;;;;;7.90;6.33;;;;;;;;;;5015004;28;20054;-65
2022/01/06 01:52:57;;;;;;;8.27;6.70;;;;;;;;;;5012884;28;20065;-65
2022/01/06 01:55:23;;;;;;;7.93;5.87;;;;;;;;;;5013973;28;20029;-65
2022/01/06 01:57:49;;;;;;;8.30;5.47;;;;;;;;;;5012723;28;20117;-65
2022/01/06 02:00:16;;;;;;;9.13;6.13;;;;;;;;;;5014062;28;20030;-65
2022/01/06 02:02:42;;;;;;;9.80;5.50;;;;;;;;;;5016388;28;20032;-65
2022/01/06 02:05:09;;;;;;;7.23;5.37;;;;;;;;;;5009113;28;20069;-65
2022/01/06 02:07:35;;;;;;;8.67;5.70;;;;;;;;;;4998966;28;20026;-65
2022/01/06 02:10:04;;;;;;;6.77;4.93;;;;;;;;;;4989904;28;20030;-65
2022/01/06 02:12:34;;;;;;;5.27;3.97;;;;;;;;;;5009886;28;20084;-65
2022/01/06 02:15:00;;;;;;;8.50;4.90;;;;;;;;;;5012704;28;20061;-65
2022/01/06 02:17:26;;;;;;;6.63;4.17;;;;;;;;;;5012828;28;20026;-64
2022/01/06 02:19:56;;;;;;;10.43;4.83;;;;;;;;;;5012939;28;20026;-65
2022/01/06 02:22:22;;;;;;;8.27;4.57;;;;;;;;;;5013385;28;20028;-65
2022/01/06 02:24:49;;;;;;;6.63;4.40;;;;;;;;;;5012566;28;20030;-65
2022/01/06 02:27:15;;;;;;;10.20;4.67;;;;;;;;;;5013323;28;20028;-65
2022/01/06 02:29:42;;;;;;;6.20;4.60;;;;;;;;;;5012729;28;20088;-65
2022/01/06 02:32:15;;;;;;;5.33;4.10;;;;;;;;;;5013423;28;20022;-65
2022/01/06 02:34:41;;;;;;;6.07;4.70;;;;;;;;;;5011139;28;20507;-65
2022/01/06 02:37:07;;;;;;;5.53;4.00;;;;;;;;;;4994931;28;20088;-65
2022/01/06 02:39:33;;;;;;;5.33;3.73;;;;;;;;;;4995509;28;20109;-65
2022/01/06 02:41:59;;;;;;;5.03;3.90;;;;;;;;;;5013262;28;20476;-65
2022/01/06 02:44:26;;;;;;;7.63;4.63;;;;;;;;;;5011972;28;20484;-65
2022/01/06 02:46:52;;;;;;;5.80;4.43;;;;;;;;;;5010859;28;20026;-65
2022/01/06 02:49:18;;;;;;;4.73;3.67;;;;;;;;;;5013236;28;20551;-65
2022/01/06 02:51:44;;;;;;;5.07;3.60;;;;;;;;;;5012365;28;20097;-65
2022/01/06 02:54:11;;;;;;;6.20;4.53;;;;;;;;;;4995292;28;20128;-65
2022/01/06 02:56:38;;;;;;;5.80;4.20;;;;;;;;;;5012347;28;20057;-65
2022/01/06 02:59:04;;;;;;;5.20;3.67;;;;;;;;;;5018539;28;20022;-65
2022/01/06 03:01:30;;;;;;;5.50;4.10;;;;;;;;;;5016259;28;20034;-65
2022/01/06 03:03:56;;;;;;;7.93;4.40;;;;;;;;;;5011323;28;20607;-65
2022/01/06 03:06:31;;;;;;;6.50;4.80;;;;;;;;;;5012098;28;20045;-65
2022/01/06 03:09:10;;;;;;;8.40;5.80;;;;;;;;;;5009763;28;20088;-65
2022/01/06 03:11:41;;;;;;;5.93;4.80;;;;;;;;;;5012018;28;20033;-65
2022/01/06 03:14:08;;;;;;;6.63;5.17;;;;;;;;;;5012727;28;20046;-65
2022/01/06 03:16:34;;;;;;;6.43;5.07;;;;;;;;;;5011918;28;20484;-65
2022/01/06 03:18:59;;;;;;;6.67;5.70;;;;;;;;;;5012606;28;20030;-64
2022/01/06 03:21:25;;;;;;;6.80;5.27;;;;;;;;;;5011629;28;20033;-65
2022/01/06 03:23:52;;;;;;;6.57;5.47;;;;;;;;;;5013205;28;20388;-65
2022/01/06 03:26:18;;;;;;;8.13;6.07;;;;;;;;;;5011910;28;20033;-65
2022/01/06 03:28:43;;;;;;;7.57;6.37;;;;;;;;;;5013103;28;20034;-65
2022/01/06 03:31:09;;;;;;;7.23;4.77;;;;;;;;;;5023731;28;20036;-65
2022/01/06 03:34:00;;;;;;;7.33;5.23;;;;;;;;;;5015763;28;20364;-65
2022/01/06 03:36:26;;;;;;;7.47;5.10;;;;;;;;;;5015512;28;20100;-64
2022/01/06 03:38:52;;;;;;;6.93;4.67;;;;;;;;;;5016998;28;20057;-65
2022/01/06 03:41:18;;;;;;;6.50;4.50;;;;;;;;;;5015543;28;20032;-65
2022/01/06 03:43:44;;;;;;;6.77;5.37;;;;;;;;;;5016180;28;20033;-65
2022/01/06 03:46:10;;;;;;;6.73;4.80;;;;;;;;;;5014938;28;20030;-65
2022/01/06 03:48:36;;;;;;;6.90;4.60;;;;;;;;;;5014731;28;20548;-65
2022/01/06 03:51:03;;;;;;;10.07;5.70;;;;;;;;;;5015252;28;20029;-65
2022/01/06 03:53:29;;;;;;;4.57;3.40;;;;;;;;;;5015610;28;20034;-65
2022/01/06 03:55:55;;;;;;;4.67;3.57;;;;;;;;;;5014970;28;20034;-65
2022/01/06 03:58:21;;;;;;;5.20;3.10;;;;;;;;;;5018660;28;20037;-64
2022/01/06 04:00:47;;;;;;;3.57;2.60;;;;;;;;;;5013928;28;20025;-65
2022/01/06 04:03:13;;;;;;;3.90;2.80;;;;;;;;;;5016105;28;20065;-65
2022/01/06 04:05:39;;;;;;;2.73;2.20;;;;;;;;;;5014723;28;20029;-65
2022/01/06 04:11:27;;;;;;;2.57;2.10;;;;;;;;;;5013301;28;20049;-64
2022/01/06 04:13:53;;;;;;;2.63;2.40;;;;;;;;;;5004596;28;20058;-64
2022/01/06 04:16:19;;;;;;;3.47;2.33;;;;;;;;;;4996252;28;20041;-65
2022/01/06 04:18:46;;;;;;;3.30;2.40;;;;;;;;;;5011476;28;20040;-65
2022/01/06 04:21:12;;;;;;;3.50;2.70;;;;;;;;;;5015425;28;20103;-65
2022/01/06 04:23:38;;;;;;;3.77;2.70;;;;;;;;;;5014746;28;20026;-63
2022/01/06 04:26:04;;;;;;;2.73;2.33;;;;;;;;;;5009429;28;20080;-63
2022/01/06 04:28:30;;;;;;;4.83;2.23;;;;;;;;;;5013347;28;20038;-65
2022/01/06 04:30:56;;;;;;;3.17;2.47;;;;;;;;;;5015687;28;20034;-63
2022/01/06 04:33:22;;;;;;;2.70;1.90;;;;;;;;;;5014369;28;20121;-63
2022/01/06 04:35:48;;;;;;;3.00;2.47;;;;;;;;;;5015464;28;20156;-63
2022/01/06 04:38:14;;;;;;;2.30;2.10;;;;;;;;;;5014206;28;20071;-63
2022/01/06 04:40:40;;;;;;;3.33;2.10;;;;;;;;;;5015299;28;20026;-64
2022/01/06 04:43:07;;;;;;;4.70;2.43;;;;;;;;;;5014397;28;20018;-64
2022/01/06 04:45:34;;;;;;;3.27;2.40;;;;;;;;;;4984495;28;20105;-64
2022/01/06 04:48:00;;;;;;;2.83;2.00;;;;;;;;;;4996576;28;20026;-64
2022/01/06 04:50:26;;;;;;;3.03;2.33;;;;;;;;;;5007870;28;20029;-64
2022/01/06 04:52:52;;;;;;;3.07;2.20;;;;;;;;;;5006239;28;20037;-64
2022/01/06 04:55:18;;;;;;;2.30;1.80;;;;;;;;;;5030655;28;20026;-64
2022/01/06 04:57:44;;;;;;;2.63;1.70;;;;;;;;;;5022391;28;20037;-65
2022/01/06 05:00:10;;;;;;;1.90;1.50;;;;;;;;;;5013386;28;20034;-65
2022/01/06 05:02:36;;;;;;;2.63;1.23;;;;;;;;;;5013724;28;20076;-65
2022/01/06 05:05:03;;;;;;;1.87;1.23;;;;;;;;;;5029336;28;20065;-64
2022/01/06 05:07:29;;;;;;;2.43;1.67;;;;;;;;;;5025568;28;20049;-64
2022/01/06 05:09:55;;;;;;;1.57;1.20;;;;;;;;;;5014664;28;20037;-64
2022/01/06 05:12:22;;;;;;;1.77;1.33;;;;;;;;;;5013715;28;20038;-64
2022/01/06 05:14:48;;;;;;;1.10;1.00;;;;;;;;;;5011818;28;20034;-64
2022/01/06 05:17:14;;;;;;;1.27;0.93;;;;;;;;;;5014084;28;20022;-64
2022/01/06 05:19:40;;;;;;;1.77;1.30;;;;;;;;;;5014365;28;20251;-64
2022/01/06 05:22:06;;;;;;;1.60;1.23;;;;;;;;;;5013764;28;20107;-64
2022/01/06 05:24:33;;;;;;;2.90;1.20;;;;;;;;;;5014420;28;20029;-65
2022/01/06 05:26:59;;;;;;;1.20;1.00;;;;;;;;;;5013759;28;20038;-65
2022/01/06 05:29:25;;;;;;;0.93;0.83;;;;;;;;;;5014258;28;20476;-64
2022/01/06 05:31:51;;;;;;;1.03;0.93;;;;;;;;;;5013061;28;20494;-64
2022/01/06 05:34:17;;;;;;;1.93;0.67;;;;;;;;;;5003903;28;20120;-64
2022/01/06 05:36:43;;;;;;;1.17;0.70;;;;;;;;;;5032607;28;20025;-64
2022/01/06 05:39:09;;;;;;;1.20;1.00;;;;;;;;;;5012559;28;20141;-64
2022/01/06 05:41:35;;;;;;;2.20;1.07;;;;;;;;;;5014341;28;20033;-64
2022/01/06 05:44:02;;;;;;;1.93;1.00;;;;;;;;;;5013319;28;20060;-64
2022/01/06 05:46:28;;;;;;;1.00;0.87;;;;;;;;;;5014189;28;20048;-64
2022/01/06 05:48:54;;;;;;;1.53;1.33;;;;;;;;;;5012679;28;20041;-64
2022/01/06 05:51:20;;;;;;;0.97;0.87;;;;;;;;;;5013711;28;20108;-65
2022/01/06 05:53:46;;;;;;;2.60;1.40;;;;;;;;;;5012521;28;20483;-65
2022/01/06 05:56:12;;;;;;;2.77;1.20;;;;;;;;;;5014038;28;20030;-64
2022/01/06 05:58:40;;;;;;;1.33;1.23;;;;;;;;;;5009791;28;20137;-64
2022/01/06 06:01:07;;;;;;;1.90;1.70;;;;;;;;;;5014235;28;20060;-64
2022/01/06 06:03:33;;;;;;;1.70;1.43;;;;;;;;;;4990743;28;20053;-64
2022/01/06 06:05:59;;;;;;;1.13;1.10;;;;;;;;;;5016961;28;20475;-65
2022/01/06 06:08:25;;;;;;;1.50;1.40;;;;;;;;;;5009885;28;20022;-64
2022/01/06 06:10:51;;;;;;;1.43;1.20;;;;;;;;;;5012016;28;20032;-64
2022/01/06 06:13:17;;;;;;;2.37;1.63;;;;;;;;;;5012408;28;20046;-64
2022/01/06 06:15:43;;;;;;;1.40;1.30;;;;;;;;;;4995059;28;20387;-64
2022/01/06 06:18:12;;;;;;;1.50;1.40;;;;;;;;;;4999367;28;20025;-64
2022/01/06 06:20:39;;;;;;;2.10;1.20;;;;;;;;;;5013663;28;20022;-64
2022/01/06 06:23:05;;;;;;;1.33;1.23;;;;;;;;;;5012390;28;20105;-64
2022/01/06 06:25:31;;;;;;;1.77;1.17;;;;;;;;;;4996024;28;20033;-64
2022/01/06 06:27:57;;;;;;;1.90;1.37;;;;;;;;;;5012019;28;20033;-64
2022/01/06 06:30:23;;;;;;;1.70;1.60;;;;;;;;;;5013546;28;20022;-64
2022/01/06 06:32:49;;;;;;;4.03;2.33;;;;;;;;;;5012055;28;20088;-64
2022/01/06 06:35:16;;;;;;;2.87;1.40;;;;;;;;;;5026417;28;20025;-64
2022/01/06 06:37:42;;;;;;;1.90;1.50;;;;;;;;;;5022399;28;20033;-64
2022/01/06 06:40:08;;;;;;;1.47;1.37;;;;;;;;;;5012739;28;20026;-64
2022/01/06 06:42:35;;;;;;;1.47;1.37;;;;;;;;;;5010272;28;20036;-64
2022/01/06 06:45:01;;;;;;;1.80;1.60;;;;;;;;;;4993993;28;20030;-64
2022/01/06 06:47:27;;;;;;;1.83;1.63;;;;;;;;;;4994468;28;20083;-65
2022/01/06 06:49:56;;;;;;;2.43;1.60;;;;;;;;;;5012282;28;20124;-64
2022/01/06 06:52:22;;;;;;;1.30;1.20;;;;;;;;;;4995500;28;20365;-64
2022/01/06 06:54:48;;;;;;;1.80;1.70;;;;;;;;;;5020194;28;20086;-64
2022/01/06 06:57:14;;;;;;;1.60;1.50;;;;;;;;;;5029966;28;20080;-64
2022/01/06 06:59:40;;;;;;;1.80;1.70;;;;;;;;;;5012431;28;20451;-64
2022/01/06 07:02:06;;;;;;;2.33;1.80;;;;;;;;;;5012955;28;20030;-64
2022/01/06 07:04:32;;;;;;;2.70;2.50;;;;;;;;;;5016386;28;20030;-64
2022/01/06 07:06:58;;;;;;;2.20;2.00;;;;;;;;;;5016045;28;20018;-64
2022/01/06 07:09:24;;;;;;;1.60;1.50;;;;;;;;;;4987078;28;20040;-64
2022/01/06 07:11:50;;;;;;;2.63;1.77;;;;;;;;;;5016916;28;20415;-63
2022/01/06 07:14:16;;;;;;;1.40;1.30;;;;;;;;;;5018456;28;20563;-63
2022/01/06 07:16:42;;;;;;;2.20;1.40;;;;;;;;;;5036471;28;20064;-63
2022/01/06 07:19:08;;;;;;;2.27;1.80;;;;;;;;;;5015481;28;20058;-64
2022/01/06 07:21:34;;;;;;;2.47;2.10;;;;;;;;;;4996848;28;20379;-63
2022/01/06 07:24:00;;;;;;;2.03;1.83;;;;;;;;;;5006014;28;20116;-63
2022/01/06 07:26:26;;;;;;;2.03;1.63;;;;;;;;;;4999461;28;20060;-63
2022/01/06 07:28:52;;;;;;;2.63;2.40;;;;;;;;;;5015067;28;20033;-63
2022/01/06 07:31:19;;;;;;;2.90;2.03;;;;;;;;;;5016715;28;20464;-63
2022/01/06 07:33:45;;;;;;;3.27;2.20;;;;;;;;;;4997761;28;20494;-63
2022/01/06 07:36:11;;;;;;;2.40;2.20;;;;;;;;;;5032366;28;20030;-63
2022/01/06 07:38:37;;;;;;;2.40;1.30;;;;;;;;;;5019297;28;20128;-64
2022/01/06 07:41:03;;;;;;;1.47;1.37;;;;;;;;;;5016621;28;20100;-64
2022/01/06 07:43:29;;;;;;;1.27;1.00;;;;;;;;;;5014693;28;20061;-64
2022/01/06 07:45:55;;;;;;;3.73;1.60;;;;;;;;;;5016670;28;20110;-63
2022/01/06 07:48:26;;;;;;;2.40;1.10;;;;;;;;;;5015246;28;20030;-64
2022/01/06 07:50:52;;;;;;;2.03;1.70;;;;;;;;;;5022326;28;20025;-63
2022/01/06 07:53:18;;;;;;;4.07;1.47;;;;;;;;;;5030787;28;20046;-63
2022/01/06 07:55:44;;;;;;;1.60;1.50;;;;;;;;;;4995303;28;20093;-64
2022/01/06 07:58:10;;;;;;;1.80;1.27;;;;;;;;;;4998041;28;22370;-63
2022/01/06 08:00:36;;;;;;;1.87;1.60;;;;;;;;;;5019746;28;20075;-64
2022/01/06 08:03:02;;;;;;;1.93;1.40;;;;;;;;;;5029739;28;20033;-64
2022/01/06 08:05:29;;;;;;;1.63;1.30;;;;;;;;;;5014418;28;20084;-64
2022/01/06 08:07:55;;;;;;;1.23;1.10;;;;;;;;;;5014967;28;20533;-64
2022/01/06 08:10:22;;;;;;;1.33;1.00;;;;;;;;;;5015762;28;20041;-64
2022/01/06 08:12:48;;;;;;;2.50;1.60;;;;;;;;;;5015152;28;20104;-64
2022/01/06 08:15:17;;;;;;;1.13;1.03;;;;;;;;;;5014198;28;20041;-64
2022/01/06 08:17:43;;;;;;;2.30;1.37;;;;;;;;;;5015504;28;20026;-64
2022/01/06 08:20:09;;;;;;;1.97;1.33;;;;;;;;;;5014285;28;20068;-64
2022/01/06 08:22:36;;;;;;;3.00;1.40;;;;;;;;;;5015604;28;20108;-64
2022/01/06 08:25:08;;;;;;;1.37;1.27;;;;;;;;;;5014354;28;20386;-64
2022/01/06 08:27:34;;;;;;;2.30;1.50;;;;;;;;;;5015160;28;20025;-64
2022/01/06 08:30:00;;;;;;;1.97;1.30;;;;;;;;;;5014989;28;20384;-64
2022/01/06 08:32:26;;;;;;;1.67;0.93;;;;;;;;;;5019711;28;20032;-64
2022/01/06 08:34:52;;;;;;;3.70;1.07;;;;;;;;;;5019034;28;20116;-64
2022/01/06 08:37:19;;;;;;;2.10;1.77;;;;;;;;;;5015104;28;20116;-64
2022/01/06 08:39:45;;;;;;;1.40;1.30;;;;;;;;;;5014837;28;20502;-64
2022/01/06 08:42:12;;;;;;;3.33;1.20;;;;;;;;;;5016538;28;20037;-64
2022/01/06 08:44:39;;;;;;;1.90;1.37;;;;;;;;;;5014148;28;20053;-64
2022/01/06 08:47:06;;;;;;;1.53;1.43;;;;;;;;;;5013396;28;20025;-64
2022/01/06 08:49:32;;;;;;;1.83;1.50;;;;;;;;;;5013683;28;20041;-64
2022/01/06 08:51:58;;;;;;;2.97;2.27;;;;;;;;;;5014940;28;20029;-64
2022/01/06 08:54:24;;;;;;;1.53;0.90;;;;;;;;;;5013247;28;20117;-64
2022/01/06 08:56:50;;;;;;;4.47;1.97;;;;;;;;;;5014265;28;20100;-64
2022/01/06 08:59:16;;;;;;;2.13;1.73;;;;;;;;;;5013289;28;20026;-64
2022/01/06 09:01:42;;;;;;;2.30;1.57;;;;;;;;;;5014702;28;20034;-64
2022/01/06 09:04:08;;;;;;;3.40;2.17;;;;;;;;;;5013218;28;20134;-64
2022/01/06 09:06:34;;;;;;;1.40;1.30;;;;;;;;;;5014756;28;20037;-64
2022/01/06 09:09:00;;;;;;;2.50;1.30;;;;;;;;;;5014311;28;20030;-64
2022/01/06 09:11:26;;;;;;;1.73;1.20;;;;;;;;;;5014713;28;20030;-64
2022/01/06 09:13:52;;;;;;;2.53;1.30;;;;;;;;;;5024393;28;20147;-64
2022/01/06 09:16:18;;;;;;;1.40;1.30;;;;;;;;;;5015207;28;20100;-64
2022/01/06 09:18:44;;;;;;;1.87;1.47;;;;;;;;;;5010161;28;20096;-64
2022/01/06 09:21:10;;;;;;;1.80;1.40;;;;;;;;;;5013933;28;20101;-64
2022/01/06 09:23:36;;;;;;;1.83;1.73;;;;;;;;;;5012479;28;20123;-64
2022/01/06 09:26:03;;;;;;;1.80;1.60;;;;;;;;;;5012963;28;20045;-65
2022/01/06 09:28:29;;;;;;;2.27;1.47;;;;;;;;;;5013892;28;20029;-65
2022/01/06 09:30:56;;;;;;;1.63;1.53;;;;;;;;;;5013013;28;20028;-64
2022/01/06 09:33:22;;;;;;;1.70;1.53;;;;;;;;;;5012694;28;20048;-64
2022/01/06 09:35:49;;;;;;;1.30;1.20;;;;;;;;;;5011753;28;20399;-64
2022/01/06 09:38:15;;;;;;;7.93;3.47;;;;;;;;;;5011617;28;20076;-62
2022/01/06 09:40:42;;;;;;;5.60;2.00;;;;;;;;;;5012858;28;20522;-62
2022/01/06 09:43:08;;;;;;;14.10;2.33;;;;;;;;;;5016093;28;20030;-65
2022/01/06 09:45:35;;;;;;;2.17;1.23;;;;;;;;;;5012153;28;20096;-65
2022/01/06 09:48:01;;;;;;;1.27;1.17;;;;;;;;;;5013662;28;20419;-65
2022/01/06 09:50:28;;;;;;;2.67;1.30;;;;;;;;;;5013079;28;20113;-65
2022/01/06 09:52:54;;;;;;;2.77;1.50;;;;;;;;;;5013132;28;20037;-65
2022/01/06 09:55:21;;;;;;;1.33;1.20;;;;;;;;;;5013288;28;20030;-65
2022/01/06 09:57:56;;;;;;;2.63;1.37;;;;;;;;;;5013546;28;20030;-65
2022/01/06 10:00:22;;;;;;;2.08;1.55;;;;;;;;;;4995427;28;20034;-65
2022/01/06 10:02:53;;;;;;;2.90;2.00;;;;;;;;;;5013200;28;20037;-65
2022/01/06 10:05:19;;;;;;;3.90;1.80;;;;;;;;;;5016402;28;20025;-65
2022/01/06 10:07:45;;;;;;;5.17;1.50;;;;;;;;;;5004894;28;20038;-65
2022/01/06 10:10:12;;;;;;;2.00;1.80;;;;;;;;;;5008226;28;20034;-65
2022/01/06 10:12:40;;;;;;;1.90;1.60;;;;;;;;;;5012372;28;20084;-65
2022/01/06 10:15:17;;;;;;;3.00;1.77;;;;;;;;;;5015831;28;20036;-65
2022/01/06 10:17:43;;;;;;;3.00;1.80;;;;;;;;;;5014068;28;20022;-65
2022/01/06 10:20:20;;;;;;;1.93;1.80;;;;;;;;;;4995021;28;20049;-65
2022/01/06 10:22:56;;;;;;;2.80;2.07;;;;;;;;;;5013402;28;20022;-65
2022/01/06 10:25:23;;;;;;;3.20;2.37;;;;;;;;;;5011565;28;20384;-65
2022/01/06 10:27:52;;;;;;;5.73;5.23;;;;;;;;;;4994935;28;20514;-65
2022/01/06 10:30:18;;;;;;;5.70;5.10;;;;;;;;;;5012610;28;20376;-65
2022/01/06 10:32:45;;;;;;;4.33;3.10;;;;;;;;;;4995431;28;20045;-65
2022/01/06 10:35:11;;;;;;;4.77;3.40;;;;;;;;;;5012835;28;20385;-65
2022/01/06 10:37:41;;;;;;;3.80;2.80;;;;;;;;;;5004413;28;20029;-65
2022/01/06 10:40:08;;;;;;;4.40;2.80;;;;;;;;;;4994942;28;20030;-64
2022/01/06 10:42:35;;;;;;;3.73;3.00;;;;;;;;;;5012984;28;20065;-64
2022/01/06 10:45:09;;;;;;;4.03;3.10;;;;;;;;;;5012602;28;20026;-64
2022/01/06 10:47:35;;;;;;;4.77;3.03;;;;;;;;;;5013119;28;20021;-65
2022/01/06 10:50:08;;;;;;;4.33;2.73;;;;;;;;;;5012363;28;20022;-65
2022/01/06 10:52:35;;;;;;;5.37;4.87;;;;;;;;;;5012691;28;20033;-64
2022/01/06 10:55:15;;;;;;;4.27;3.03;;;;;;;;;;5010882;28;20040;-64
2022/01/06 10:57:50;;;;;;;6.13;3.30;;;;;;;;;;5023338;28;20621;-64
2022/01/06 11:00:17;;;;;;;2.70;2.43;;;;;;;;;;5021078;28;20040;-65
2022/01/06 11:02:43;;;;;;;4.57;3.47;;;;;;;;;;5012643;28;20034;-64
2022/01/06 11:05:09;;;;;;;4.37;3.17;;;;;;;;;;5012216;28;20022;-64
2022/01/06 11:07:35;;;;;;;4.27;2.80;;;;;;;;;;5012836;28;20113;-64
2022/01/06 11:10:05;;;;;;;5.10;3.10;;;;;;;;;;5012449;28;20168;-64
2022/01/06 11:12:33;;;;;;;5.43;3.47;;;;;;;;;;5012898;28;20138;-64
2022/01/06 11:15:00;;;;;;;5.27;3.27;;;;;;;;;;5012384;28;20041;-65
2022/01/06 11:17:27;;;;;;;5.10;3.10;;;;;;;;;;5015438;28;20029;-65
2022/01/06 11:19:53;;;;;;;4.67;3.43;;;;;;;;;;5011081;28;20471;-64
2022/01/06 11:22:25;;;;;;;5.43;3.67;;;;;;;;;;5012051;28;20486;-65
2022/01/06 11:24:55;;;;;;;5.70;4.27;;;;;;;;;;5011944;28;20487;-64
2022/01/06 11:27:32;;;;;;;5.53;4.07;;;;;;;;;;5012361;28;20033;-65
2022/01/06 11:30:07;;;;;;;4.73;3.63;;;;;;;;;;5012277;28;20034;-64
2022/01/06 11:32:33;;;;;;;6.00;3.67;;;;;;;;;;5012279;28;20022;-65
2022/01/06 11:35:02;;;;;;;4.63;3.03;;;;;;;;;;5011085;28;20033;-65
2022/01/06 11:37:38;;;;;;;7.17;3.67;;;;;;;;;;5015809;28;20019;-65
2022/01/06 11:40:05;;;;;;;5.00;3.43;;;;;;;;;;5012168;28;20026;-65
2022/01/06 11:42:31;;;;;;;4.63;3.23;;;;;;;;;;5012735;28;20034;-65
2022/01/06 11:44:58;;;;;;;5.27;3.33;;;;;;;;;;4994279;28;20460;-65
2022/01/06 11:47:38;;;;;;;5.80;3.67;;;;;;;;;;5012301;28;20022;-65
2022/01/06 11:50:16;;;;;;;5.73;4.00;;;;;;;;;;5014159;28;20034;-65
2022/01/06 11:52:55;;;;;;;6.73;4.10;;;;;;;;;;5015971;28;20042;-65
2022/01/06 11:55:22;;;;;;;4.40;3.03;;;;;;;;;;5015648;28;20034;-65
2022/01/06 11:57:48;;;;;;;5.60;3.73;;;;;;;;;;5011277;28;20430;-65
2022/01/06 12:00:14;;;;;;;5.00;3.50;;;;;;;;;;5015603;28;20026;-65
2022/01/06 12:02:40;;;;;;;5.00;3.73;;;;;;;;;;5015626;28;20025;-64
2022/01/06 12:05:07;;;;;;;4.87;3.90;;;;;;;;;;5015360;28;20044;-65
2022/01/06 12:07:33;;;;;;;5.00;3.90;;;;;;;;;;5015931;28;20056;-65
2022/01/06 12:10:07;;;;;;;7.27;5.07;;;;;;;;;;5015398;28;20025;-64
2022/01/06 12:12:37;;;;;;;4.38;3.40;;;;;;;;;;5015225;28;20034;-64
2022/01/06 12:15:14;;;;;;;5.20;3.87;;;;;;;;;;5014366;28;20034;-65
2022/01/06 12:17:48;;;;;;;6.63;3.70;;;;;;;;;;5001668;28;20041;-65
2022/01/06 12:20:28;;;;;;;3.73;2.90;;;;;;;;;;5013987;28;20025;-65
2022/01/06 12:22:54;;;;;;;4.20;3.37;;;;;;;;;;5015473;28;20062;-64
2022/01/06 12:25:24;;;;;;;4.37;3.10;;;;;;;;;;5015248;28;20025;-65
2022/01/06 12:27:56;;;;;;;8.13;4.93;;;;;;;;;;5015244;28;20087;-65
2022/01/06 12:30:25;;;;;;;4.07;3.67;;;;;;;;;;5014750;28;20026;-65
2022/01/06 12:32:57;;;;;;;7.53;3.87;;;;;;;;;;5013590;28;20184;-65
2022/01/06 12:35:42;;;;;;;4.97;3.57;;;;;;;;;;5013534;28;20471;-64
2022/01/06 12:38:09;;;;;;;6.10;3.38;;;;;;;;;;5011882;28;20099;-64
2022/01/06 12:40:36;;;;;;;5.70;4.23;;;;;;;;;;5003445;28;20070;-64
2022/01/06 12:43:19;;;;;;;6.87;4.33;;;;;;;;;;5009784;28;20030;-64
2022/01/06 12:45:46;;;;;;;5.57;3.87;;;;;;;;;;5012188;28;20030;-65
2022/01/06 12:48:12;;;;;;;4.83;4.00;;;;;;;;;;5012483;28;20034;-65
2022/01/06 12:50:43;;;;;;;5.67;3.20;;;;;;;;;;5012801;28;20384;-65
2022/01/06 12:53:09;;;;;;;5.73;3.80;;;;;;;;;;5014236;28;20042;-65
2022/01/06 12:55:42;;;;;;;4.10;3.63;;;;;;;;;;5023529;28;20022;-64
2022/01/06 12:58:08;;;;;;;5.07;3.53;;;;;;;;;;5014861;28;20041;-64
2022/01/06 13:00:34;;;;;;;4.73;3.93;;;;;;;;;;5013204;28;20022;-64
2022/01/06 13:03:05;;;;;;;7.97;4.37;;;;;;;;;;5012793;28;20018;-65
2022/01/06 13:05:31;;;;;;;6.67;4.80;;;;;;;;;;5014306;28;20492;-64
2022/01/06 13:08:06;;;;;;;5.93;4.30;;;;;;;;;;5014490;28;20026;-64
2022/01/06 13:10:33;;;;;;;6.23;4.27;;;;;;;;;;5014105;28;20022;-64
2022/01/06 13:13:05;;;;;;;7.07;4.57;;;;;;;;;;5013489;28;20054;-63
2022/01/06 13:15:35;;;;;;;6.70;4.40;;;;;;;;;;5024477;28;20022;-65
2022/01/06 13:18:01;;;;;;;6.40;4.37;;;;;;;;;;5014034;28;20037;-65
2022/01/06 13:20:27;;;;;;;6.97;4.90;;;;;;;;;;4995466;28;20110;-64
2022/01/06 13:25:25;;;;;;;7.90;5.63;;;;;;;;;;5025437;28;20030;-65
2022/01/06 13:27:54;;;;;;;7.03;5.23;;;;;;;;;;5014217;28;20038;-64
2022/01/06 13:30:29;;;;;;;7.37;5.50;;;;;;;;;;5013574;28;20022;-65
2022/01/06 13:32:56;;;;;;;6.37;4.90;;;;;;;;;;5013936;28;20033;-64
2022/01/06 13:35:22;;;;;;;6.40;5.00;;;;;;;;;;5024483;28;20092;-65
2022/01/06 13:37:48;;;;;;;7.97;4.93;;;;;;;;;;5013979;28;20038;-64
2022/01/06 13:40:15;;;;;;;8.97;5.43;;;;;;;;;;5013361;28;20108;-64
2022/01/06 13:42:43;;;;;;;6.70;4.80;;;;;;;;;;5013657;28;20030;-64
2022/01/06 13:45:23;;;;;;;6.83;5.30;;;;;;;;;;5013137;28;20022;-65
2022/01/06 13:48:00;;;;;;;6.30;4.80;;;;;;;;;;5014426;28;20025;-65
2022/01/06 13:51:04;;;;;;;9.63;6.27;;;;;;;;;;5012824;28;20054;-65
2022/01/06 13:53:37;;;;;;;7.20;5.60;;;;;;;;;;4995470;28;20128;-65
2022/01/06 13:56:07;;;;;;;8.03;5.60;;;;;;;;;;5002701;28;20096;-64
2022/01/06 13:58:38;;;;;;;6.97;5.07;;;;;;;;;;5013769;28;20084;-64
2022/01/06 14:01:05;;;;;;;6.57;5.20;;;;;;;;;;5012936;28;20030;-64
2022/01/06 14:03:35;;;;;;;6.83;5.50;;;;;;;;;;5013634;28;20554;-65
2022/01/06 14:06:05;;;;;;;6.90;5.13;;;;;;;;;;5023969;28;20030;-64
2022/01/06 14:08:31;;;;;;;6.37;5.27;;;;;;;;;;5011973;28;20447;-64
2022/01/06 14:10:57;;;;;;;6.87;5.20;;;;;;;;;;5012511;28;20391;-64
2022/01/06 14:13:23;;;;;;;6.97;5.63;;;;;;;;;;5013094;28;20384;-64
2022/01/06 14:15:49;;;;;;;7.30;5.43;;;;;;;;;;5023966;28;20068;-64
2022/01/06 14:18:15;;;;;;;6.57;5.17;;;;;;;;;;5012766;28;20045;-64
2022/01/06 14:20:42;;;;;;;10.20;5.40;;;;;;;;;;5012678;28;20061;-64
2022/01/06 14:23:09;;;;;;;6.67;4.97;;;;;;;;;;4995658;28;20030;-64
2022/01/06 14:25:35;;;;;;;7.90;5.37;;;;;;;;;;5012243;28;20042;-64
2022/01/06 14:28:01;;;;;;;7.57;5.90;;;;;;;;;;5013422;28;20361;-64
2022/01/06 14:30:27;;;;;;;9.23;5.33;;;;;;;;;;5012722;28;20044;-64
2022/01/06 14:33:12;;;;;;;7.43;4.93;;;;;;;;;;5012665;28;20044;-64
2022/01/06 14:35:38;;;;;;;7.13;5.13;;;;;;;;;;4993967;28;20034;-64
2022/01/06 14:38:04;;;;;;;8.00;5.70;;;;;;;;;;5011418;28;20034;-65
2022/01/06 14:40:30;;;;;;;6.87;5.07;;;;;;;;;;4994984;28;20022;-64
2022/01/06 14:42:58;;;;;;;7.07;5.70;;;;;;;;;;5012735;28;20490;-65
2022/01/06 14:45:26;;;;;;;6.03;5.17;;;;;;;;;;5012190;28;20553;-64
2022/01/06 14:47:52;;;;;;;8.13;5.70;;;;;;;;;;5012993;28;20376;-64
2022/01/06 14:50:18;;;;;;;7.60;5.70;;;;;;;;;;5013151;28;20030;-65
2022/01/06 14:52:44;;;;;;;7.67;5.23;;;;;;;;;;5012607;28;20096;-64
2022/01/06 14:55:11;;;;;;;7.80;5.63;;;;;;;;;;5015612;28;20038;-65
2022/01/06 14:57:37;;;;;;;9.30;6.37;;;;;;;;;;5012505;28;20108;-65
2022/01/06 15:00:04;;;;;;;7.83;6.17;;;;;;;;;;4995201;28;20490;-65